sensor_id;sensor_type;location;lat;lon;timestamp;P1;durP1;ratioP1;P2;durP2;ratioP2
32523;SDS011;18965;52.242;20.886;2023-09-18T00:00:31;7.60;;;4.18;;
32523;SDS011;18965;52.242;20.886;2023-09-18T00:02:58;4.85;;;4.07;;
32523;SDS011;18965;52.242;20.886;2023-09-18T00:07:53;6.68;;;4.53;;
32523;SDS011;18965;52.242;20.886;2023-09-18T00:10:20;5.40;;;4.53;;
32523;SDS011;18965;52.242;20.886;2023-09-18T00:12:46;5.25;;;4.40;;
32523;SDS011;18965;52.242;20.886;2023-09-18T00:15:12;5.50;;;4.78;;
32523;SDS011;18965;52.242;20.886;2023-09-18T00:17:38;6.82;;;4.50;;
32523;SDS011;18965;52.242;20.886;2023-09-18T00:20:04;6.35;;;4.95;;
32523;SDS011;18965;52.242;20.886;2023-09-18T00:22:35;6.47;;;5.10;;
32523;SDS011;18965;52.242;20.886;2023-09-18T00:25:07;8.63;;;5.03;;
32523;SDS011;18965;52.242;20.886;2023-09-18T00:27:36;5.35;;;4.57;;
32523;SDS011;18965;52.242;20.886;2023-09-18T00:30:03;8.18;;;5.63;;
32523;SDS011;18965;52.242;20.886;2023-09-18T00:32:30;6.07;;;4.82;;
32523;SDS011;18965;52.242;20.886;2023-09-18T00:34:57;6.88;;;5.13;;
32523;SDS011;18965;52.242;20.886;2023-09-18T00:37:28;6.57;;;5.13;;
32523;SDS011;18965;52.242;20.886;2023-09-18T00:39:55;5.95;;;5.22;;
32523;SDS011;18965;52.242;20.886;2023-09-18T00:42:20;8.10;;;4.65;;
32523;SDS011;18965;52.242;20.886;2023-09-18T00:44:47;6.05;;;4.85;;
32523;SDS011;18965;52.242;20.886;2023-09-18T00:47:14;6.53;;;5.00;;
32523;SDS011;18965;52.242;20.886;2023-09-18T00:49:41;8.32;;;5.60;;
32523;SDS011;18965;52.242;20.886;2023-09-18T00:52:09;5.70;;;4.97;;
32523;SDS011;18965;52.242;20.886;2023-09-18T00:54:36;7.05;;;4.95;;
32523;SDS011;18965;52.242;20.886;2023-09-18T00:57:03;8.43;;;5.35;;
32523;SDS011;18965;52.242;20.886;2023-09-18T00:59:30;6.43;;;5.10;;
32523;SDS011;18965;52.242;20.886;2023-09-18T01:01:56;6.10;;;5.07;;
32523;SDS011;18965;52.242;20.886;2023-09-18T01:04:22;6.75;;;5.18;;
32523;SDS011;18965;52.242;20.886;2023-09-18T01:06:50;6.38;;;5.45;;
32523;SDS011;18965;52.242;20.886;2023-09-18T01:09:19;8.07;;;5.88;;
32523;SDS011;18965;52.242;20.886;2023-09-18T01:16:57;7.28;;;5.68;;
32523;SDS011;18965;52.242;20.886;2023-09-18T01:22:09;8.07;;;6.05;;
32523;SDS011;18965;52.242;20.886;2023-09-18T01:24:35;8.35;;;5.68;;
32523;SDS011;18965;52.242;20.886;2023-09-18T01:27:03;7.50;;;5.95;;
32523;SDS011;18965;52.242;20.886;2023-09-18T01:29:30;8.45;;;6.40;;
32523;SDS011;18965;52.242;20.886;2023-09-18T01:31:56;7.13;;;5.68;;
32523;SDS011;18965;52.242;20.886;2023-09-18T01:34:25;8.32;;;6.18;;
32523;SDS011;18965;52.242;20.886;2023-09-18T01:36:57;9.52;;;5.82;;
32523;SDS011;18965;52.242;20.886;2023-09-18T01:39:24;9.75;;;6.30;;
32523;SDS011;18965;52.242;20.886;2023-09-18T01:41:55;7.68;;;5.80;;
32523;SDS011;18965;52.242;20.886;2023-09-18T01:44:23;9.73;;;6.78;;
32523;SDS011;18965;52.242;20.886;2023-09-18T01:46:49;7.57;;;6.40;;
32523;SDS011;18965;52.242;20.886;2023-09-18T01:49:16;9.07;;;5.72;;
32523;SDS011;18965;52.242;20.886;2023-09-18T01:51:51;7.70;;;6.45;;
32523;SDS011;18965;52.242;20.886;2023-09-18T01:54:17;7.55;;;6.20;;
32523;SDS011;18965;52.242;20.886;2023-09-18T01:56:43;8.00;;;6.57;;
32523;SDS011;18965;52.242;20.886;2023-09-18T01:59:08;9.45;;;6.50;;
32523;SDS011;18965;52.242;20.886;2023-09-18T02:01:34;7.68;;;6.20;;
32523;SDS011;18965;52.242;20.886;2023-09-18T02:04:02;6.97;;;5.93;;
32523;SDS011;18965;52.242;20.886;2023-09-18T02:06:29;7.78;;;6.03;;
32523;SDS011;18965;52.242;20.886;2023-09-18T02:08:55;9.10;;;6.47;;
32523;SDS011;18965;52.242;20.886;2023-09-18T02:11:21;9.15;;;6.50;;
32523;SDS011;18965;52.242;20.886;2023-09-18T02:13:47;12.35;;;6.43;;
32523;SDS011;18965;52.242;20.886;2023-09-18T02:16:12;8.13;;;6.38;;
32523;SDS011;18965;52.242;20.886;2023-09-18T02:18:39;8.02;;;5.90;;
32523;SDS011;18965;52.242;20.886;2023-09-18T02:21:04;8.80;;;5.72;;
32523;SDS011;18965;52.242;20.886;2023-09-18T02:23:30;8.50;;;6.13;;
32523;SDS011;18965;52.242;20.886;2023-09-18T02:25:59;8.02;;;6.07;;
32523;SDS011;18965;52.242;20.886;2023-09-18T02:28:25;7.25;;;5.82;;
32523;SDS011;18965;52.242;20.886;2023-09-18T02:30:51;7.88;;;6.20;;
32523;SDS011;18965;52.242;20.886;2023-09-18T02:33:17;10.10;;;6.50;;
32523;SDS011;18965;52.242;20.886;2023-09-18T02:35:42;7.68;;;5.85;;
32523;SDS011;18965;52.242;20.886;2023-09-18T02:38:08;8.15;;;5.90;;
32523;SDS011;18965;52.242;20.886;2023-09-18T02:40:34;7.95;;;6.20;;
32523;SDS011;18965;52.242;20.886;2023-09-18T02:43:00;7.75;;;6.30;;
32523;SDS011;18965;52.242;20.886;2023-09-18T02:45:27;8.20;;;6.43;;
32523;SDS011;18965;52.242;20.886;2023-09-18T02:47:53;8.93;;;6.25;;
32523;SDS011;18965;52.242;20.886;2023-09-18T02:50:18;7.93;;;6.28;;
32523;SDS011;18965;52.242;20.886;2023-09-18T02:52:44;7.40;;;6.28;;
32523;SDS011;18965;52.242;20.886;2023-09-18T02:55:10;7.10;;;5.68;;
32523;SDS011;18965;52.242;20.886;2023-09-18T02:57:36;7.50;;;5.95;;
32523;SDS011;18965;52.242;20.886;2023-09-18T03:00:02;9.25;;;5.68;;
32523;SDS011;18965;52.242;20.886;2023-09-18T03:02:28;8.73;;;6.35;;
32523;SDS011;18965;52.242;20.886;2023-09-18T03:04:55;7.57;;;5.93;;
32523;SDS011;18965;52.242;20.886;2023-09-18T03:07:21;7.93;;;5.97;;
32523;SDS011;18965;52.242;20.886;2023-09-18T03:09:47;7.57;;;5.53;;
32523;SDS011;18965;52.242;20.886;2023-09-18T03:12:13;7.68;;;6.55;;
32523;SDS011;18965;52.242;20.886;2023-09-18T03:14:39;8.90;;;6.40;;
32523;SDS011;18965;52.242;20.886;2023-09-18T03:17:05;8.98;;;6.40;;
32523;SDS011;18965;52.242;20.886;2023-09-18T03:19:30;7.38;;;6.07;;
32523;SDS011;18965;52.242;20.886;2023-09-18T03:21:56;7.95;;;6.22;;
32523;SDS011;18965;52.242;20.886;2023-09-18T03:24:22;8.70;;;6.53;;
32523;SDS011;18965;52.242;20.886;2023-09-18T03:26:47;10.75;;;6.65;;
32523;SDS011;18965;52.242;20.886;2023-09-18T03:29:14;7.68;;;6.47;;
32523;SDS011;18965;52.242;20.886;2023-09-18T03:31:40;9.18;;;6.85;;
32523;SDS011;18965;52.242;20.886;2023-09-18T03:34:05;10.43;;;6.85;;
32523;SDS011;18965;52.242;20.886;2023-09-18T03:36:31;9.95;;;6.63;;
32523;SDS011;18965;52.242;20.886;2023-09-18T03:38:57;7.72;;;6.50;;
32523;SDS011;18965;52.242;20.886;2023-09-18T03:41:23;7.72;;;6.53;;
32523;SDS011;18965;52.242;20.886;2023-09-18T03:43:50;9.00;;;6.93;;
32523;SDS011;18965;52.242;20.886;2023-09-18T03:46:15;7.47;;;6.45;;
32523;SDS011;18965;52.242;20.886;2023-09-18T03:48:41;9.65;;;6.72;;
32523;SDS011;18965;52.242;20.886;2023-09-18T03:51:07;10.57;;;6.85;;
32523;SDS011;18965;52.242;20.886;2023-09-18T03:53:37;9.40;;;6.35;;
32523;SDS011;18965;52.242;20.886;2023-09-18T03:56:03;8.75;;;6.97;;
32523;SDS011;18965;52.242;20.886;2023-09-18T03:58:28;7.95;;;6.57;;
32523;SDS011;18965;52.242;20.886;2023-09-18T04:00:54;8.45;;;6.45;;
32523;SDS011;18965;52.242;20.886;2023-09-18T04:03:21;10.45;;;7.10;;
32523;SDS011;18965;52.242;20.886;2023-09-18T04:05:46;8.65;;;7.22;;
32523;SDS011;18965;52.242;20.886;2023-09-18T04:08:12;8.20;;;6.68;;
32523;SDS011;18965;52.242;20.886;2023-09-18T04:10:38;12.25;;;6.85;;
32523;SDS011;18965;52.242;20.886;2023-09-18T04:13:04;9.00;;;7.20;;
32523;SDS011;18965;52.242;20.886;2023-09-18T04:15:30;8.80;;;7.60;;
32523;SDS011;18965;52.242;20.886;2023-09-18T04:17:56;12.00;;;8.05;;
32523;SDS011;18965;52.242;20.886;2023-09-18T04:20:22;8.60;;;7.25;;
32523;SDS011;18965;52.242;20.886;2023-09-18T04:23:16;9.52;;;7.65;;
32523;SDS011;18965;52.242;20.886;2023-09-18T04:25:43;8.43;;;7.15;;
32523;SDS011;18965;52.242;20.886;2023-09-18T04:28:10;11.93;;;7.65;;
32523;SDS011;18965;52.242;20.886;2023-09-18T04:30:37;8.93;;;7.35;;
32523;SDS011;18965;52.242;20.886;2023-09-18T04:33:03;12.45;;;7.85;;
32523;SDS011;18965;52.242;20.886;2023-09-18T04:35:29;11.48;;;8.05;;
32523;SDS011;18965;52.242;20.886;2023-09-18T04:37:56;12.00;;;8.13;;
32523;SDS011;18965;52.242;20.886;2023-09-18T04:40:23;8.82;;;7.25;;
32523;SDS011;18965;52.242;20.886;2023-09-18T04:42:50;10.25;;;6.95;;
32523;SDS011;18965;52.242;20.886;2023-09-18T04:45:15;9.70;;;7.88;;
32523;SDS011;18965;52.242;20.886;2023-09-18T04:47:41;8.98;;;7.00;;
32523;SDS011;18965;52.242;20.886;2023-09-18T04:50:07;11.90;;;7.85;;
32523;SDS011;18965;52.242;20.886;2023-09-18T04:52:33;14.43;;;8.07;;
32523;SDS011;18965;52.242;20.886;2023-09-18T04:54:59;9.95;;;8.10;;
32523;SDS011;18965;52.242;20.886;2023-09-18T04:57:25;10.00;;;7.43;;
32523;SDS011;18965;52.242;20.886;2023-09-18T04:59:51;10.55;;;7.93;;
32523;SDS011;18965;52.242;20.886;2023-09-18T05:02:17;12.35;;;7.97;;
32523;SDS011;18965;52.242;20.886;2023-09-18T05:04:42;9.95;;;7.47;;
32523;SDS011;18965;52.242;20.886;2023-09-18T05:07:08;9.93;;;7.85;;
32523;SDS011;18965;52.242;20.886;2023-09-18T05:09:34;11.25;;;7.85;;
32523;SDS011;18965;52.242;20.886;2023-09-18T05:12:00;9.77;;;7.85;;
32523;SDS011;18965;52.242;20.886;2023-09-18T05:14:28;9.93;;;7.88;;
32523;SDS011;18965;52.242;20.886;2023-09-18T05:16:54;10.80;;;8.25;;
32523;SDS011;18965;52.242;20.886;2023-09-18T05:19:20;11.60;;;8.15;;
32523;SDS011;18965;52.242;20.886;2023-09-18T05:21:46;10.38;;;7.95;;
32523;SDS011;18965;52.242;20.886;2023-09-18T05:24:13;11.73;;;8.65;;
32523;SDS011;18965;52.242;20.886;2023-09-18T05:26:38;10.63;;;7.40;;
32523;SDS011;18965;52.242;20.886;2023-09-18T05:29:04;11.50;;;7.90;;
32523;SDS011;18965;52.242;20.886;2023-09-18T05:31:30;16.10;;;7.47;;
32523;SDS011;18965;52.242;20.886;2023-09-18T05:33:56;13.02;;;7.68;;
32523;SDS011;18965;52.242;20.886;2023-09-18T05:36:22;9.82;;;8.05;;
32523;SDS011;18965;52.242;20.886;2023-09-18T05:38:47;11.68;;;8.68;;
32523;SDS011;18965;52.242;20.886;2023-09-18T05:41:13;11.85;;;8.70;;
32523;SDS011;18965;52.242;20.886;2023-09-18T05:43:39;13.63;;;8.77;;
32523;SDS011;18965;52.242;20.886;2023-09-18T05:46:05;12.35;;;8.43;;
32523;SDS011;18965;52.242;20.886;2023-09-18T05:48:30;12.88;;;8.10;;
32523;SDS011;18965;52.242;20.886;2023-09-18T05:50:56;11.38;;;8.18;;
32523;SDS011;18965;52.242;20.886;2023-09-18T05:53:22;10.90;;;8.38;;
32523;SDS011;18965;52.242;20.886;2023-09-18T05:55:48;11.25;;;8.40;;
32523;SDS011;18965;52.242;20.886;2023-09-18T05:58:13;11.30;;;8.05;;
32523;SDS011;18965;52.242;20.886;2023-09-18T06:00:39;10.80;;;7.53;;
32523;SDS011;18965;52.242;20.886;2023-09-18T06:03:13;15.40;;;8.57;;
32523;SDS011;18965;52.242;20.886;2023-09-18T06:05:44;12.80;;;8.23;;
32523;SDS011;18965;52.242;20.886;2023-09-18T06:08:27;13.05;;;8.20;;
32523;SDS011;18965;52.242;20.886;2023-09-18T06:11:07;11.23;;;8.45;;
32523;SDS011;18965;52.242;20.886;2023-09-18T06:13:34;12.60;;;7.70;;
32523;SDS011;18965;52.242;20.886;2023-09-18T06:19:12;12.50;;;8.32;;
32523;SDS011;18965;52.242;20.886;2023-09-18T06:21:44;13.68;;;8.77;;
32523;SDS011;18965;52.242;20.886;2023-09-18T06:24:41;12.93;;;8.40;;
32523;SDS011;18965;52.242;20.886;2023-09-18T06:27:07;12.32;;;8.13;;
32523;SDS011;18965;52.242;20.886;2023-09-18T06:29:36;10.32;;;8.25;;
32523;SDS011;18965;52.242;20.886;2023-09-18T06:32:06;12.98;;;9.02;;
32523;SDS011;18965;52.242;20.886;2023-09-18T06:34:32;13.30;;;8.60;;
32523;SDS011;18965;52.242;20.886;2023-09-18T06:36:58;9.52;;;8.05;;
32523;SDS011;18965;52.242;20.886;2023-09-18T06:39:24;15.57;;;8.30;;
32523;SDS011;18965;52.242;20.886;2023-09-18T06:41:51;10.40;;;8.25;;
32523;SDS011;18965;52.242;20.886;2023-09-18T06:44:16;13.75;;;8.80;;
32523;SDS011;18965;52.242;20.886;2023-09-18T06:46:42;11.95;;;8.60;;
32523;SDS011;18965;52.242;20.886;2023-09-18T06:49:08;10.40;;;8.25;;
32523;SDS011;18965;52.242;20.886;2023-09-18T06:51:34;10.98;;;7.78;;
32523;SDS011;18965;52.242;20.886;2023-09-18T06:54:00;10.30;;;8.13;;
32523;SDS011;18965;52.242;20.886;2023-09-18T06:56:27;10.75;;;8.32;;
32523;SDS011;18965;52.242;20.886;2023-09-18T06:58:56;10.53;;;8.60;;
32523;SDS011;18965;52.242;20.886;2023-09-18T07:01:22;9.18;;;7.75;;
32523;SDS011;18965;52.242;20.886;2023-09-18T07:03:49;13.85;;;8.02;;
32523;SDS011;18965;52.242;20.886;2023-09-18T07:06:15;9.85;;;8.20;;
32523;SDS011;18965;52.242;20.886;2023-09-18T07:08:44;14.45;;;8.60;;
32523;SDS011;18965;52.242;20.886;2023-09-18T07:11:10;10.23;;;8.30;;
32523;SDS011;18965;52.242;20.886;2023-09-18T07:13:36;10.00;;;8.13;;
32523;SDS011;18965;52.242;20.886;2023-09-18T07:16:05;13.77;;;8.05;;
32523;SDS011;18965;52.242;20.886;2023-09-18T07:18:51;10.43;;;7.72;;
32523;SDS011;18965;52.242;20.886;2023-09-18T07:21:23;14.13;;;7.85;;
32523;SDS011;18965;52.242;20.886;2023-09-18T07:23:51;9.55;;;7.88;;
32523;SDS011;18965;52.242;20.886;2023-09-18T07:26:26;11.70;;;7.72;;
32523;SDS011;18965;52.242;20.886;2023-09-18T07:28:55;9.93;;;7.70;;
32523;SDS011;18965;52.242;20.886;2023-09-18T07:31:21;10.75;;;7.72;;
32523;SDS011;18965;52.242;20.886;2023-09-18T07:33:47;10.52;;;7.53;;
32523;SDS011;18965;52.242;20.886;2023-09-18T07:36:13;9.07;;;7.80;;
32523;SDS011;18965;52.242;20.886;2023-09-18T07:38:40;10.50;;;7.53;;
32523;SDS011;18965;52.242;20.886;2023-09-18T07:41:10;13.38;;;7.55;;
32523;SDS011;18965;52.242;20.886;2023-09-18T07:43:36;10.85;;;7.70;;
32523;SDS011;18965;52.242;20.886;2023-09-18T07:46:04;14.90;;;7.50;;
32523;SDS011;18965;52.242;20.886;2023-09-18T07:48:30;10.75;;;7.50;;
32523;SDS011;18965;52.242;20.886;2023-09-18T07:51:05;8.60;;;6.60;;
32523;SDS011;18965;52.242;20.886;2023-09-18T07:53:30;10.57;;;7.53;;
32523;SDS011;18965;52.242;20.886;2023-09-18T07:55:57;13.30;;;7.90;;
32523;SDS011;18965;52.242;20.886;2023-09-18T07:58:24;10.68;;;7.13;;
32523;SDS011;18965;52.242;20.886;2023-09-18T08:00:53;12.15;;;7.75;;
32523;SDS011;18965;52.242;20.886;2023-09-18T08:03:20;11.98;;;7.75;;
32523;SDS011;18965;52.242;20.886;2023-09-18T08:05:49;9.80;;;7.40;;
32523;SDS011;18965;52.242;20.886;2023-09-18T08:08:18;11.02;;;6.97;;
32523;SDS011;18965;52.242;20.886;2023-09-18T08:10:46;10.10;;;7.28;;
32523;SDS011;18965;52.242;20.886;2023-09-18T08:13:12;20.10;;;10.75;;
32523;SDS011;18965;52.242;20.886;2023-09-18T08:15:38;13.70;;;7.95;;
32523;SDS011;18965;52.242;20.886;2023-09-18T08:18:04;13.00;;;7.68;;
32523;SDS011;18965;52.242;20.886;2023-09-18T08:20:30;11.52;;;7.80;;
32523;SDS011;18965;52.242;20.886;2023-09-18T08:22:58;12.35;;;7.82;;
32523;SDS011;18965;52.242;20.886;2023-09-18T08:25:26;8.82;;;7.15;;
32523;SDS011;18965;52.242;20.886;2023-09-18T08:27:52;13.07;;;7.78;;
32523;SDS011;18965;52.242;20.886;2023-09-18T08:30:18;8.40;;;6.85;;
32523;SDS011;18965;52.242;20.886;2023-09-18T08:32:48;9.32;;;7.80;;
32523;SDS011;18965;52.242;20.886;2023-09-18T08:35:14;12.70;;;7.53;;
32523;SDS011;18965;52.242;20.886;2023-09-18T08:37:48;12.02;;;7.57;;
32523;SDS011;18965;52.242;20.886;2023-09-18T08:40:28;11.40;;;7.60;;
32523;SDS011;18965;52.242;20.886;2023-09-18T08:43:21;9.77;;;8.23;;
32523;SDS011;18965;52.242;20.886;2023-09-18T08:45:54;9.68;;;7.55;;
32523;SDS011;18965;52.242;20.886;2023-09-18T08:48:26;12.27;;;7.45;;
32523;SDS011;18965;52.242;20.886;2023-09-18T08:51:02;14.80;;;7.88;;
32523;SDS011;18965;52.242;20.886;2023-09-18T08:53:37;10.55;;;6.70;;
32523;SDS011;18965;52.242;20.886;2023-09-18T08:58:53;10.30;;;7.53;;
32523;SDS011;18965;52.242;20.886;2023-09-18T09:01:19;11.52;;;7.43;;
32523;SDS011;18965;52.242;20.886;2023-09-18T09:03:49;8.05;;;7.05;;
32523;SDS011;18965;52.242;20.886;2023-09-18T09:06:15;7.85;;;6.55;;
32523;SDS011;18965;52.242;20.886;2023-09-18T09:08:45;8.13;;;6.20;;
32523;SDS011;18965;52.242;20.886;2023-09-18T09:11:10;8.75;;;6.32;;
32523;SDS011;18965;52.242;20.886;2023-09-18T09:13:36;7.35;;;6.03;;
32523;SDS011;18965;52.242;20.886;2023-09-18T09:16:02;7.07;;;6.38;;
32523;SDS011;18965;52.242;20.886;2023-09-18T09:18:29;12.65;;;6.13;;
32523;SDS011;18965;52.242;20.886;2023-09-18T09:20:59;8.45;;;6.35;;
32523;SDS011;18965;52.242;20.886;2023-09-18T09:23:27;7.03;;;6.03;;
32523;SDS011;18965;52.242;20.886;2023-09-18T09:26:11;7.90;;;5.97;;
32523;SDS011;18965;52.242;20.886;2023-09-18T09:28:38;6.95;;;5.93;;
32523;SDS011;18965;52.242;20.886;2023-09-18T09:31:04;7.03;;;5.63;;
32523;SDS011;18965;52.242;20.886;2023-09-18T09:33:30;8.43;;;6.15;;
32523;SDS011;18965;52.242;20.886;2023-09-18T09:35:57;7.43;;;5.97;;
32523;SDS011;18965;52.242;20.886;2023-09-18T09:38:30;7.22;;;5.70;;
32523;SDS011;18965;52.242;20.886;2023-09-18T09:41:04;7.00;;;5.40;;
32523;SDS011;18965;52.242;20.886;2023-09-18T09:43:32;8.45;;;4.72;;
32523;SDS011;18965;52.242;20.886;2023-09-18T09:46:01;6.20;;;4.95;;
32523;SDS011;18965;52.242;20.886;2023-09-18T09:48:28;6.10;;;5.28;;
32523;SDS011;18965;52.242;20.886;2023-09-18T09:51:01;5.35;;;4.80;;
32523;SDS011;18965;52.242;20.886;2023-09-18T09:53:45;5.97;;;4.90;;
32523;SDS011;18965;52.242;20.886;2023-09-18T09:56:13;4.55;;;4.15;;
32523;SDS011;18965;52.242;20.886;2023-09-18T09:58:39;6.47;;;4.40;;
32523;SDS011;18965;52.242;20.886;2023-09-18T10:01:09;5.47;;;4.93;;
32523;SDS011;18965;52.242;20.886;2023-09-18T10:03:43;7.95;;;5.28;;
32523;SDS011;18965;52.242;20.886;2023-09-18T10:06:12;6.65;;;5.60;;
32523;SDS011;18965;52.242;20.886;2023-09-18T10:08:38;7.05;;;4.70;;
32523;SDS011;18965;52.242;20.886;2023-09-18T10:11:05;5.95;;;4.70;;
32523;SDS011;18965;52.242;20.886;2023-09-18T10:14:19;7.03;;;4.78;;
32523;SDS011;18965;52.242;20.886;2023-09-18T10:16:28;6.25;;;4.80;;
32523;SDS011;18965;52.242;20.886;2023-09-18T10:24:45;7.65;;;5.10;;
32523;SDS011;18965;52.242;20.886;2023-09-18T10:27:14;6.22;;;4.88;;
32523;SDS011;18965;52.242;20.886;2023-09-18T10:29:43;6.07;;;4.53;;
32523;SDS011;18965;52.242;20.886;2023-09-18T10:32:16;4.57;;;4.18;;
32523;SDS011;18965;52.242;20.886;2023-09-18T10:34:45;5.43;;;4.40;;
32523;SDS011;18965;52.242;20.886;2023-09-18T10:37:12;6.53;;;4.78;;
32523;SDS011;18965;52.242;20.886;2023-09-18T10:39:40;6.28;;;4.68;;
32523;SDS011;18965;52.242;20.886;2023-09-18T10:42:10;6.90;;;5.00;;
32523;SDS011;18965;52.242;20.886;2023-09-18T10:44:37;5.85;;;4.95;;
32523;SDS011;18965;52.242;20.886;2023-09-18T10:47:06;6.38;;;4.75;;
32523;SDS011;18965;52.242;20.886;2023-09-18T10:49:35;9.68;;;4.57;;
32523;SDS011;18965;52.242;20.886;2023-09-18T10:52:04;8.27;;;4.75;;
32523;SDS011;18965;52.242;20.886;2023-09-18T10:54:39;6.97;;;4.38;;
32523;SDS011;18965;52.242;20.886;2023-09-18T10:57:05;5.88;;;4.47;;
32523;SDS011;18965;52.242;20.886;2023-09-18T10:59:31;8.18;;;5.22;;
32523;SDS011;18965;52.242;20.886;2023-09-18T11:02:03;7.07;;;5.30;;
32523;SDS011;18965;52.242;20.886;2023-09-18T11:04:34;5.03;;;4.53;;
32523;SDS011;18965;52.242;20.886;2023-09-18T11:07:01;5.50;;;4.63;;
32523;SDS011;18965;52.242;20.886;2023-09-18T11:09:31;5.63;;;4.50;;
32523;SDS011;18965;52.242;20.886;2023-09-18T11:15:15;5.72;;;4.63;;
32523;SDS011;18965;52.242;20.886;2023-09-18T11:18:19;7.90;;;4.95;;
32523;SDS011;18965;52.242;20.886;2023-09-18T11:21:17;5.50;;;4.68;;
32523;SDS011;18965;52.242;20.886;2023-09-18T11:26:49;5.85;;;4.85;;
32523;SDS011;18965;52.242;20.886;2023-09-18T11:29:37;13.50;;;5.10;;
32523;SDS011;18965;52.242;20.886;2023-09-18T11:32:06;6.18;;;4.57;;
32523;SDS011;18965;52.242;20.886;2023-09-18T11:34:42;5.78;;;4.45;;
32523;SDS011;18965;52.242;20.886;2023-09-18T11:37:21;7.28;;;4.82;;
32523;SDS011;18965;52.242;20.886;2023-09-18T11:39:47;8.43;;;5.20;;
32523;SDS011;18965;52.242;20.886;2023-09-18T11:42:18;5.68;;;5.13;;
32523;SDS011;18965;52.242;20.886;2023-09-18T11:44:58;10.68;;;5.85;;
32523;SDS011;18965;52.242;20.886;2023-09-18T11:47:27;9.07;;;5.50;;
32523;SDS011;18965;52.242;20.886;2023-09-18T11:49:56;7.60;;;5.63;;
32523;SDS011;18965;52.242;20.886;2023-09-18T11:55:00;8.05;;;5.32;;
32523;SDS011;18965;52.242;20.886;2023-09-18T11:57:38;7.68;;;5.30;;
32523;SDS011;18965;52.242;20.886;2023-09-18T12:00:21;6.63;;;4.88;;
32523;SDS011;18965;52.242;20.886;2023-09-18T12:02:53;6.57;;;5.70;;
32523;SDS011;18965;52.242;20.886;2023-09-18T12:05:30;6.93;;;5.32;;
32523;SDS011;18965;52.242;20.886;2023-09-18T12:07:58;6.13;;;5.53;;
32523;SDS011;18965;52.242;20.886;2023-09-18T12:10:30;8.40;;;6.18;;
32523;SDS011;18965;52.242;20.886;2023-09-18T12:13:00;9.45;;;5.88;;
32523;SDS011;18965;52.242;20.886;2023-09-18T12:15:42;6.22;;;5.63;;
32523;SDS011;18965;52.242;20.886;2023-09-18T12:18:13;10.10;;;6.10;;
32523;SDS011;18965;52.242;20.886;2023-09-18T12:23:39;7.25;;;5.88;;
32523;SDS011;18965;52.242;20.886;2023-09-18T12:26:07;7.07;;;5.78;;
32523;SDS011;18965;52.242;20.886;2023-09-18T12:28:35;6.82;;;5.70;;
32523;SDS011;18965;52.242;20.886;2023-09-18T12:31:04;10.43;;;7.03;;
32523;SDS011;18965;52.242;20.886;2023-09-18T12:33:33;26.85;;;12.93;;
32523;SDS011;18965;52.242;20.886;2023-09-18T12:36:02;41.38;;;15.82;;
32523;SDS011;18965;52.242;20.886;2023-09-18T12:38:30;13.43;;;8.50;;
32523;SDS011;18965;52.242;20.886;2023-09-18T12:40:59;13.02;;;8.15;;
32523;SDS011;18965;52.242;20.886;2023-09-18T12:43:39;9.60;;;7.38;;
32523;SDS011;18965;52.242;20.886;2023-09-18T12:46:07;11.15;;;7.45;;
32523;SDS011;18965;52.242;20.886;2023-09-18T12:48:42;9.98;;;6.90;;
32523;SDS011;18965;52.242;20.886;2023-09-18T12:51:29;8.35;;;7.05;;
32523;SDS011;18965;52.242;20.886;2023-09-18T12:54:03;8.40;;;6.50;;
32523;SDS011;18965;52.242;20.886;2023-09-18T12:56:49;8.52;;;6.38;;
32523;SDS011;18965;52.242;20.886;2023-09-18T12:59:20;9.45;;;7.10;;
32523;SDS011;18965;52.242;20.886;2023-09-18T13:01:56;8.52;;;6.80;;
32523;SDS011;18965;52.242;20.886;2023-09-18T13:04:24;7.93;;;7.10;;
32523;SDS011;18965;52.242;20.886;2023-09-18T13:07:11;10.10;;;6.97;;
32523;SDS011;18965;52.242;20.886;2023-09-18T13:09:38;11.63;;;7.43;;
32523;SDS011;18965;52.242;20.886;2023-09-18T13:15:31;9.18;;;7.00;;
32523;SDS011;18965;52.242;20.886;2023-09-18T13:17:58;16.60;;;7.85;;
32523;SDS011;18965;52.242;20.886;2023-09-18T13:20:26;25.73;;;8.10;;
32523;SDS011;18965;52.242;20.886;2023-09-18T13:23:12;10.50;;;7.65;;
32523;SDS011;18965;52.242;20.886;2023-09-18T13:25:43;12.50;;;7.57;;
32523;SDS011;18965;52.242;20.886;2023-09-18T13:28:11;9.85;;;7.28;;
32523;SDS011;18965;52.242;20.886;2023-09-18T13:30:46;26.48;;;18.58;;
32523;SDS011;18965;52.242;20.886;2023-09-18T13:35:44;10.93;;;8.30;;
32523;SDS011;18965;52.242;20.886;2023-09-18T13:38:19;8.63;;;7.70;;
32523;SDS011;18965;52.242;20.886;2023-09-18T13:40:51;15.05;;;10.30;;
32523;SDS011;18965;52.242;20.886;2023-09-18T13:43:18;12.70;;;8.98;;
32523;SDS011;18965;52.242;20.886;2023-09-18T13:46:13;9.73;;;7.32;;
32523;SDS011;18965;52.242;20.886;2023-09-18T13:51:22;10.13;;;7.40;;
32523;SDS011;18965;52.242;20.886;2023-09-18T13:54:00;8.50;;;7.25;;
32523;SDS011;18965;52.242;20.886;2023-09-18T13:56:44;8.77;;;6.93;;
32523;SDS011;18965;52.242;20.886;2023-09-18T13:59:43;8.48;;;6.93;;
32523;SDS011;18965;52.242;20.886;2023-09-18T14:02:16;8.57;;;7.70;;
32523;SDS011;18965;52.242;20.886;2023-09-18T14:04:54;13.40;;;8.15;;
32523;SDS011;18965;52.242;20.886;2023-09-18T14:07:25;12.52;;;7.88;;
32523;SDS011;18965;52.242;20.886;2023-09-18T14:09:54;11.32;;;8.00;;
32523;SDS011;18965;52.242;20.886;2023-09-18T14:12:20;9.63;;;7.90;;
32523;SDS011;18965;52.242;20.886;2023-09-18T14:14:46;13.20;;;8.05;;
32523;SDS011;18965;52.242;20.886;2023-09-18T14:17:12;15.98;;;8.32;;
32523;SDS011;18965;52.242;20.886;2023-09-18T14:19:43;10.40;;;7.35;;
32523;SDS011;18965;52.242;20.886;2023-09-18T14:22:09;13.38;;;7.40;;
32523;SDS011;18965;52.242;20.886;2023-09-18T14:24:46;9.55;;;7.38;;
32523;SDS011;18965;52.242;20.886;2023-09-18T14:27:38;15.25;;;7.45;;
32523;SDS011;18965;52.242;20.886;2023-09-18T14:30:06;11.52;;;7.18;;
32523;SDS011;18965;52.242;20.886;2023-09-18T14:35:03;9.65;;;6.53;;
32523;SDS011;18965;52.242;20.886;2023-09-18T14:37:36;8.52;;;6.57;;
32523;SDS011;18965;52.242;20.886;2023-09-18T14:40:02;10.45;;;5.85;;
32523;SDS011;18965;52.242;20.886;2023-09-18T14:42:28;10.68;;;6.43;;
32523;SDS011;18965;52.242;20.886;2023-09-18T14:44:54;7.05;;;5.78;;
32523;SDS011;18965;52.242;20.886;2023-09-18T14:47:20;7.40;;;5.80;;
32523;SDS011;18965;52.242;20.886;2023-09-18T14:49:46;6.80;;;6.10;;
32523;SDS011;18965;52.242;20.886;2023-09-18T14:52:14;8.25;;;5.63;;
32523;SDS011;18965;52.242;20.886;2023-09-18T14:54:47;10.88;;;6.13;;
32523;SDS011;18965;52.242;20.886;2023-09-18T14:57:35;8.23;;;5.85;;
32523;SDS011;18965;52.242;20.886;2023-09-18T15:00:10;11.73;;;6.13;;
32523;SDS011;18965;52.242;20.886;2023-09-18T15:02:37;9.18;;;5.70;;
32523;SDS011;18965;52.242;20.886;2023-09-18T15:05:03;11.23;;;5.55;;
32523;SDS011;18965;52.242;20.886;2023-09-18T15:07:51;7.80;;;5.80;;
32523;SDS011;18965;52.242;20.886;2023-09-18T15:10:17;8.50;;;5.90;;
32523;SDS011;18965;52.242;20.886;2023-09-18T15:12:46;8.88;;;6.07;;
32523;SDS011;18965;52.242;20.886;2023-09-18T15:15:15;13.85;;;5.97;;
32523;SDS011;18965;52.242;20.886;2023-09-18T15:20:07;7.38;;;5.55;;
32523;SDS011;18965;52.242;20.886;2023-09-18T15:22:36;8.45;;;5.35;;
32523;SDS011;18965;52.242;20.886;2023-09-18T15:25:02;10.38;;;6.22;;
32523;SDS011;18965;52.242;20.886;2023-09-18T15:27:28;8.85;;;6.53;;